Oakley, Ohio
Current Conditions -  °F | °C
As of 10:53 PM on Thursday 18 Dec 2014 (Local Time) from KLUK Reporting Station
Overcast Overcast  
Wind Chill: 28°   Ceiling: 2700
Heat Index: 28°   Visibility: 10mi
Dew Point: 21°   Wind: 3mph
Humidity: 75%   Direction: 320°NW
Pressure: 30.27"   Gusts: NA
Location:  39.1528°N, 84.4263°W
Report Text: KLUK 190353Z 32003KT 10SM OVC027 M02/M06 A3027 RMK AO2 SLP257 T10221061
Loading
Personal Weather Stations






























Interactive Weather Map New forecast layout! Learn more

10-Day Weather Forecast

Advertisements
Track Severe Weather on mobile